Alpha, Michigan
Current Conditions -  °F | °C
As of 6:54 AM on Monday 20 Oct 2014 (Local Time) from KIMT Reporting Station
Overcast Overcast  
Wind Chill: 42°   Ceiling: 3400
Heat Index: 46°   Visibility: 10mi
Dew Point: 42°   Wind: 7mph
Humidity: 86%   Direction: 320°NW
Pressure: 29.8"   Gusts: NA
Location:  46.04°N, 88.38°W
Report Text: KIMT 201154Z AUTO 32006KT 10SM OVC034 08/06 A2980 RMK AO2 SLP097 T00780056 10083 20028 51017
Loading
Personal Weather Stations






























Interactive Weather Map
Tropical Storm Tracking
New forecast layout! Learn more

10-Day Weather Forecast

Advertisements
Track Severe Weather on mobile